createdAt,value
2023-03-26T00:00:13.360Z,97993.38
2023-03-26T00:02:46.989Z,97984.75
2023-03-26T00:05:19.981Z,97980.81
2023-03-26T00:07:52.208Z,97988.03
2023-03-26T00:10:25.445Z,97984.75
2023-03-26T00:12:57.994Z,97981.47
2023-03-26T00:15:29.985Z,97976.22
2023-03-26T00:18:02.324Z,97986.75
2023-03-26T00:20:34.226Z,97974.25
2023-03-26T00:23:08.234Z,97970.91
2023-03-26T00:25:41.891Z,97974.22
2023-03-26T00:28:17.437Z,97970.91
2023-03-26T00:30:56.799Z,97974.22
2023-03-26T00:33:31.621Z,97968.94
2023-03-26T00:36:05.827Z,97959.03
2023-03-26T00:38:39.195Z,97961.03
2023-03-26T00:41:22.966Z,97961.69
2023-03-26T00:43:58.637Z,97966.31
2023-03-26T00:46:31.958Z,97967.63
2023-03-26T00:49:04.822Z,97962.97
2023-03-26T00:51:39.571Z,97961.63
2023-03-26T00:54:12.651Z,97966.91
2023-03-26T00:56:45.964Z,97951.63
2023-03-26T00:59:17.888Z,97962.91
2023-03-26T01:01:51.593Z,97956.97
2023-03-26T01:04:30.743Z,97956.34
2023-03-26T01:07:13.676Z,97950.44
2023-03-26T01:09:50.374Z,97945.19
2023-03-26T01:12:32.231Z,97941.22
2023-03-26T01:15:05.150Z,97935.28
2023-03-26T01:17:38.607Z,97923.44
2023-03-26T01:20:26.622Z,97920.75
2023-03-26T01:23:05.722Z,97910.91
2023-03-26T01:25:45.098Z,97904.31
2023-03-26T01:28:19.915Z,97892.47
2023-03-26T01:31:20.158Z,97881.91
2023-03-26T01:34:34.272Z,97871.38
2023-03-26T01:37:52.579Z,97858.22
2023-03-26T01:40:43.018Z,97845.03
2023-03-26T01:43:28.884Z,97837.13
2023-03-26T01:46:06.823Z,97830.53
2023-03-26T01:48:49.246Z,97809.44
2023-03-26T01:54:31.814Z,97802.69
2023-03-26T01:57:42.086Z,97803.44
2023-03-26T02:00:22.833Z,97796.78
2023-03-26T02:03:18.572Z,97798.75
2023-03-26T02:05:58.414Z,97788.19
2023-03-26T02:08:48.649Z,97779.63
2023-03-26T02:11:21.625Z,97775.63
2023-03-26T02:14:17.914Z,97764.44
2023-03-26T02:16:51.794Z,97761.84
2023-03-26T02:19:24.896Z,97765.88
2023-03-26T02:21:59.917Z,97757.91
2023-03-26T02:24:34.047Z,97752.63
2023-03-26T02:27:08.274Z,97746.03
2023-03-26T02:29:42.535Z,97744.09
2023-03-26T02:32:19.653Z,97718.41
2023-03-26T02:34:52.042Z,97721.75
2023-03-26T02:37:24.708Z,97723.00
2023-03-26T02:40:11.176Z,97714.44
2023-03-26T02:42:47.655Z,97721.69
2023-03-26T02:45:19.835Z,97720.34
2023-03-26T02:48:15.899Z,97706.53
2023-03-26T02:51:02.671Z,97705.22
2023-03-26T02:53:51.160Z,97700.66
2023-03-26T02:56:42.782Z,97697.94
2023-03-26T02:59:41.633Z,97695.31
2023-03-26T03:02:54.459Z,97684.78
2023-03-26T03:05:38.455Z,97688.78
2023-03-26T03:08:29.744Z,97682.91
2023-03-26T03:11:24.973Z,97669.69
2023-03-26T03:13:57.901Z,97676.31
2023-03-26T03:16:32.824Z,97677.06
2023-03-26T03:19:11.770Z,97667.84
2023-03-26T03:21:44.784Z,97656.72
2023-03-26T03:24:18.868Z,97641.59
2023-03-26T03:26:56.389Z,97621.09
2023-03-26T03:29:41.719Z,97615.84
2023-03-26T03:32:37.446Z,97607.06
2023-03-26T03:35:10.972Z,97605.13
2023-03-26T03:37:44.838Z,97603.00
2023-03-26T03:40:20.059Z,97607.03
2023-03-26T03:42:52.711Z,97613.72
2023-03-26T03:45:35.318Z,97597.22
2023-03-26T03:48:19.968Z,97605.75
2023-03-26T03:50:55.491Z,97606.44
2023-03-26T03:53:37.754Z,97608.50
2023-03-26T03:56:10.681Z,97597.22
2023-03-26T03:59:19.528Z,97597.31
2023-03-26T04:04:54.906Z,97584.16
2023-03-26T04:07:33.307Z,97577.63
2023-03-26T04:10:09.786Z,97573.03
2023-03-26T04:13:01.879Z,97563.19
2023-03-26T04:15:56.592Z,97551.44
2023-03-26T04:18:30.710Z,97544.88
2023-03-26T04:21:07.439Z,97536.34
2023-03-26T04:23:40.280Z,97547.63
2023-03-26T04:26:24.079Z,97540.38
2023-03-26T04:29:12.370Z,97525.31
2023-03-26T04:31:44.703Z,97522.66
2023-03-26T04:34:24.637Z,97532.38
2023-03-26T04:37:27.773Z,97528.53
2023-03-26T04:40:19.401Z,97519.91
2023-03-26T04:43:19.723Z,97505.38
2023-03-26T04:46:21.973Z,97501.75
2023-03-26T04:49:04.494Z,97495.03
2023-03-26T04:51:42.225Z,97485.38
2023-03-26T04:54:47.315Z,97489.13
2023-03-26T04:57:31.237Z,97475.03
2023-03-26T05:00:20.168Z,97468.41
2023-03-26T05:03:01.984Z,97461.75
2023-03-26T05:05:34.480Z,97464.44
2023-03-26T05:08:10.509Z,97457.78
2023-03-26T05:10:42.565Z,97450.47
2023-03-26T05:13:19.664Z,97461.69
2023-03-26T05:15:56.072Z,97457.09
2023-03-26T05:18:57.708Z,97465.00
2023-03-26T05:21:35.849Z,97469.75
2023-03-26T05:24:08.762Z,97464.03
2023-03-26T05:26:40.909Z,97449.78
2023-03-26T05:29:16.978Z,97441.97
2023-03-26T05:31:53.349Z,97442.00
2023-03-26T05:34:27.543Z,97446.59
2023-03-26T05:36:59.973Z,97425.53
2023-03-26T05:39:53.409Z,97422.28
2023-03-26T05:42:47.888Z,97422.84
2023-03-26T05:45:48.501Z,97415.09
2023-03-26T05:48:26.526Z,97396.13
2023-03-26T05:50:59.708Z,97372.50
2023-03-26T05:56:36.652Z,97356.09
2023-03-26T05:59:29.734Z,97357.44
2023-03-26T06:02:20.927Z,97354.16
2023-03-26T06:05:27.556Z,97348.34
2023-03-26T06:08:13.725Z,97340.44
2023-03-26T06:11:03.052Z,97326.06
2023-03-26T06:13:40.517Z,97316.94
2023-03-26T06:16:26.536Z,97311.81
2023-03-26T06:19:05.001Z,97320.56
2023-03-26T06:21:58.135Z,97309.50
2023-03-26T06:24:38.156Z,97314.09
2023-03-26T06:27:30.405Z,97306.22
2023-03-26T06:30:29.324Z,97317.38
2023-03-26T06:33:11.053Z,97308.81
2023-03-26T06:35:50.844Z,97319.34
2023-03-26T06:38:22.941Z,97312.00
2023-03-26T06:41:02.468Z,97302.13
2023-03-26T06:43:45.882Z,97305.34
2023-03-26T06:46:47.923Z,97297.13
2023-03-26T06:49:49.610Z,97304.03
2023-03-26T06:52:36.928Z,97313.50
2023-03-26T06:55:18.849Z,97298.72
2023-03-26T06:58:14.576Z,97296.59
2023-03-26T07:01:05.425Z,97293.44
2023-03-26T07:03:57.049Z,97282.91
2023-03-26T07:06:50.801Z,97292.06
2023-03-26T07:09:42.362Z,97293.34
2023-03-26T07:12:32.968Z,97286.09
2023-03-26T07:15:29.800Z,97292.78
2023-03-26T07:18:18.804Z,97277.50
2023-03-26T07:20:53.522Z,97258.19
2023-03-26T07:23:27.531Z,97279.28
2023-03-26T07:26:26.821Z,97263.25
2023-03-26T07:29:20.904Z,97254.72
2023-03-26T07:32:23.130Z,97261.88
2023-03-26T07:35:42.615Z,97267.00
2023-03-26T07:39:17.578Z,97266.53
2023-03-26T07:42:40.240Z,97267.44
2023-03-26T07:45:46.004Z,97276.97
2023-03-26T07:48:48.090Z,97283.63
2023-03-26T07:51:56.354Z,97319.78
2023-03-26T07:54:47.837Z,97363.56
2023-03-26T07:58:01.192Z,97367.75
2023-03-26T08:01:00.680Z,97364.63
2023-03-26T08:04:23.606Z,97385.88
2023-03-26T08:07:45.037Z,97395.88
2023-03-26T08:10:56.680Z,97380.88
2023-03-26T08:14:03.364Z,97381.63
2023-03-26T08:16:59.470Z,97381.59
2023-03-26T08:22:40.974Z,97366.81
2023-03-26T08:25:30.018Z,97365.41
2023-03-26T08:29:08.176Z,97371.44
2023-03-26T08:31:42.613Z,97350.59
2023-03-26T08:34:16.940Z,97354.94
2023-03-26T08:37:10.643Z,97351.53
2023-03-26T08:39:43.432Z,97347.72
2023-03-26T08:42:58.472Z,97340.75
2023-03-26T08:45:56.338Z,97357.53
2023-03-26T08:49:23.882Z,97344.78
2023-03-26T08:52:53.541Z,97334.75
2023-03-26T08:55:36.944Z,97344.81
2023-03-26T08:58:45.312Z,97351.13
2023-03-26T09:01:40.295Z,97352.94
2023-03-26T09:04:12.184Z,97333.56
2023-03-26T09:07:41.654Z,97319.41
2023-03-26T09:10:58.249Z,97330.16
2023-03-26T09:14:27.643Z,97345.31
2023-03-26T09:17:51.912Z,97348.88
2023-03-26T09:20:48.355Z,97347.56
2023-03-26T09:23:34.183Z,97348.75
2023-03-26T09:26:41.041Z,97344.59
2023-03-26T09:29:21.578Z,97342.38
2023-03-26T09:32:39.512Z,97339.47
2023-03-26T09:35:52.241Z,97337.53
2023-03-26T09:38:42.878Z,97325.31
2023-03-26T09:41:43.941Z,97322.75
2023-03-26T09:45:20.776Z,97319.66
2023-03-26T09:48:43.664Z,97324.13
2023-03-26T09:52:03.824Z,97318.56
2023-03-26T09:55:08.338Z,97318.66
2023-03-26T09:58:08.750Z,97312.75
2023-03-26T10:01:44.924Z,97328.47
2023-03-26T10:05:04.971Z,97320.44
2023-03-26T10:08:32.199Z,97341.59
2023-03-26T10:11:33.245Z,97335.44
2023-03-26T10:14:51.116Z,97341.97
2023-03-26T10:18:27.188Z,97328.97
2023-03-26T10:21:13.655Z,97332.91
2023-03-26T10:23:58.911Z,97334.09
2023-03-26T10:27:08.616Z,97333.91
2023-03-26T10:30:09.065Z,97354.66
2023-03-26T10:33:06.609Z,97336.19
2023-03-26T10:36:30.916Z,97322.31
2023-03-26T10:39:36.701Z,97319.56
2023-03-26T10:42:56.440Z,97327.22
2023-03-26T10:45:56.748Z,97334.31
2023-03-26T10:49:23.004Z,97346.56
2023-03-26T10:52:10.266Z,97346.13
2023-03-26T10:55:04.114Z,97345.19
2023-03-26T10:57:50.652Z,97339.28
2023-03-26T11:00:26.202Z,97331.44
2023-03-26T11:03:08.669Z,97330.25
2023-03-26T11:05:49.253Z,97329.97
2023-03-26T11:08:41.178Z,97319.66
2023-03-26T11:11:44.908Z,97314.72
2023-03-26T11:14:43.859Z,97317.84
2023-03-26T11:17:40.230Z,97300.75
2023-03-26T11:20:49.800Z,97308.31
2023-03-26T11:23:37.752Z,97310.13
2023-03-26T11:26:31.576Z,97291.84
2023-03-26T11:29:31.264Z,97280.88
2023-03-26T11:32:12.187Z,97292.72
2023-03-26T11:35:40.857Z,97293.09
2023-03-26T11:38:40.791Z,97310.50
2023-03-26T11:41:28.646Z,97331.22
2023-03-26T11:47:27.487Z,97326.38
2023-03-26T11:50:02.610Z,97333.41
2023-03-26T11:52:35.017Z,97339.72
2023-03-26T11:55:12.367Z,97340.59
2023-03-26T11:57:55.042Z,97361.03
2023-03-26T12:00:30.941Z,97370.03
2023-03-26T12:03:03.424Z,97364.16
2023-03-26T12:05:50.928Z,97364.66
2023-03-26T12:08:33.697Z,97372.22
2023-03-26T12:11:12.644Z,97358.56
2023-03-26T12:13:53.796Z,97333.63
2023-03-26T12:16:27.546Z,97342.84
2023-03-26T12:19:07.723Z,97339.19
2023-03-26T12:21:58.496Z,97325.38
2023-03-26T12:24:34.076Z,97315.13
2023-03-26T12:27:21.601Z,97307.75
2023-03-26T12:30:11.063Z,97310.91
2023-03-26T12:32:46.643Z,97329.09
2023-03-26T12:38:34.212Z,97299.28
2023-03-26T12:43:40.267Z,97288.72
2023-03-26T12:48:00.605Z,97282.03
2023-03-26T12:50:40.847Z,97287.09
2023-03-26T12:53:38.839Z,97263.88
2023-03-26T12:56:13.722Z,97261.66
2023-03-26T12:59:04.488Z,97266.28
2023-03-26T13:02:19.645Z,97265.06
2023-03-26T13:05:29.963Z,97255.75
2023-03-26T13:08:20.701Z,97246.84
2023-03-26T13:11:39.348Z,97227.47
2023-03-26T13:14:33.816Z,97227.88
2023-03-26T13:17:45.530Z,97229.97
2023-03-26T13:20:41.968Z,97219.75
2023-03-26T13:23:57.581Z,97227.38
2023-03-26T13:26:59.190Z,97215.03
2023-03-26T13:29:57.020Z,97209.03
2023-03-26T13:32:47.738Z,97203.00
2023-03-26T13:35:39.560Z,97217.13
2023-03-26T13:38:38.206Z,97206.47
2023-03-26T13:41:33.685Z,97191.53
2023-03-26T13:44:47.914Z,97171.22
2023-03-26T13:47:30.740Z,97155.53
2023-03-26T13:50:30.957Z,97125.19
2023-03-26T13:53:08.724Z,97151.53
2023-03-26T13:55:42.195Z,97167.28
2023-03-26T13:58:34.658Z,97223.56
2023-03-26T14:01:18.005Z,97392.19
2023-03-26T14:04:18.386Z,97348.13
2023-03-26T14:07:12.747Z,97377.56
2023-03-26T14:10:02.422Z,97386.75
2023-03-26T14:13:06.979Z,97399.88
2023-03-26T14:15:50.497Z,97397.91
2023-03-26T14:22:39.760Z,97391.28
2023-03-26T14:25:24.983Z,97380.78
2023-03-26T14:28:15.614Z,97376.13
2023-03-26T14:31:04.491Z,97351.88
2023-03-26T14:33:50.174Z,97349.88
2023-03-26T14:36:56.393Z,97357.75
2023-03-26T14:39:55.483Z,97352.50
2023-03-26T14:46:14.598Z,97345.09
2023-03-26T14:49:33.443Z,97346.31
2023-03-26T14:52:20.655Z,97348.97
2023-03-26T14:54:57.952Z,97344.94
2023-03-26T15:01:26.042Z,97348.50
2023-03-26T15:04:10.655Z,97349.13
2023-03-26T15:07:09.809Z,97335.84
2023-03-26T15:10:05.369Z,97335.81
2023-03-26T15:13:12.322Z,97330.25
2023-03-26T15:16:27.999Z,97326.94
2023-03-26T15:19:51.860Z,97328.19
2023-03-26T15:23:00.881Z,97337.03
2023-03-26T15:26:03.751Z,97323.38
2023-03-26T15:29:17.036Z,97310.03
2023-03-26T15:32:04.557Z,97309.59
2023-03-26T15:35:02.554Z,97309.19
2023-03-26T15:38:13.028Z,97297.44
2023-03-26T15:41:27.165Z,97313.19
2023-03-26T15:46:38.349Z,97319.66
2023-03-26T15:49:53.295Z,97322.97
2023-03-26T15:52:48.916Z,97321.03
2023-03-26T15:55:36.644Z,97325.63
2023-03-26T15:58:26.617Z,97324.31
2023-03-26T16:01:33.703Z,97323.03
2023-03-26T16:04:26.895Z,97315.88
2023-03-26T16:07:05.514Z,97325.06
2023-03-26T16:09:47.254Z,97323.03
2023-03-26T16:12:38.019Z,97323.03
2023-03-26T16:15:32.437Z,97342.16
2023-03-26T16:18:11.795Z,97348.03
2023-03-26T16:20:55.343Z,97343.44
2023-03-26T16:23:47.738Z,97354.56
2023-03-26T16:26:52.167Z,97370.97
2023-03-26T16:29:28.437Z,97359.16
2023-03-26T16:32:18.803Z,97361.16
2023-03-26T16:34:57.717Z,97351.28
2023-03-26T16:37:33.647Z,97359.09
2023-03-26T16:40:19.069Z,97355.13
2023-03-26T16:43:26.855Z,97338.81
2023-03-26T16:46:51.833Z,97338.75
2023-03-26T16:49:41.446Z,97330.28
2023-03-26T16:52:19.908Z,97330.25
2023-03-26T16:55:07.223Z,97325.06
2023-03-26T16:58:06.108Z,97325.72
2023-03-26T17:00:49.029Z,97337.56
2023-03-26T17:03:32.395Z,97361.19
2023-03-26T17:06:49.945Z,97356.06
2023-03-26T17:09:58.018Z,97380.50
2023-03-26T17:12:42.861Z,97376.03
2023-03-26T17:15:36.437Z,97368.25
2023-03-26T17:18:49.320Z,97384.72
2023-03-26T17:21:55.895Z,97380.16
2023-03-26T17:24:55.540Z,97376.84
2023-03-26T17:28:27.923Z,97379.47
2023-03-26T17:31:18.200Z,97389.97
2023-03-26T17:33:51.319Z,97387.34
2023-03-26T17:36:43.909Z,97386.69
2023-03-26T17:39:38.808Z,97389.28
2023-03-26T17:42:29.014Z,97393.91
2023-03-26T17:45:17.605Z,97376.84
2023-03-26T17:48:20.062Z,97386.00
2023-03-26T17:50:58.082Z,97387.34
2023-03-26T17:53:34.942Z,97386.00
2023-03-26T17:56:16.782Z,97384.00
2023-03-26T17:58:54.727Z,97372.16
2023-03-26T18:01:42.000Z,97383.97
2023-03-26T18:04:27.455Z,97380.66
2023-03-26T18:07:35.273Z,97381.31
2023-03-26T18:10:46.706Z,97375.41
2023-03-26T18:13:22.437Z,97375.41
2023-03-26T18:16:17.090Z,97366.16
2023-03-26T18:18:59.467Z,97368.13
2023-03-26T18:21:39.646Z,97372.75
2023-03-26T18:24:52.456Z,97360.94
2023-03-26T18:27:24.529Z,97366.84
2023-03-26T18:30:02.997Z,97364.88
2023-03-26T18:32:36.117Z,97360.91
2023-03-26T18:35:20.748Z,97360.19
2023-03-26T18:37:59.407Z,97367.47
2023-03-26T18:40:40.683Z,97367.50
2023-03-26T18:43:28.874Z,97358.34
2023-03-26T18:46:08.612Z,97358.34
2023-03-26T18:48:40.597Z,97354.44
2023-03-26T18:51:13.475Z,97347.81
2023-03-26T18:53:53.067Z,97347.16
2023-03-26T18:56:42.358Z,97341.91
2023-03-26T18:59:32.047Z,97334.03
2023-03-26T19:02:10.902Z,97341.25
2023-03-26T19:04:47.349Z,97339.97
2023-03-26T19:07:25.591Z,97328.78
2023-03-26T19:10:00.716Z,97328.84
2023-03-26T19:12:36.006Z,97325.56
2023-03-26T19:15:16.516Z,97330.19
2023-03-26T19:17:56.749Z,97333.50
2023-03-26T19:20:39.526Z,97337.44
2023-03-26T19:23:19.849Z,97347.88
2023-03-26T19:25:54.905Z,97358.97
2023-03-26T19:28:49.428Z,97370.78
2023-03-26T19:31:37.507Z,97372.78
2023-03-26T19:34:13.528Z,97389.25
2023-03-26T19:36:59.898Z,97382.09
2023-03-26T19:39:51.876Z,97395.91
2023-03-26T19:42:43.187Z,97367.09
2023-03-26T19:45:23.387Z,97374.31
2023-03-26T19:48:07.794Z,97360.53
2023-03-26T19:51:05.341Z,97361.84
2023-03-26T19:53:44.664Z,97353.34
2023-03-26T19:56:18.690Z,97339.56
2023-03-26T19:58:52.061Z,97336.25
2023-03-26T20:01:27.341Z,97338.28
2023-03-26T20:04:04.701Z,97332.38
2023-03-26T20:06:43.805Z,97338.91
2023-03-26T20:09:17.000Z,97331.06
2023-03-26T20:11:49.641Z,97331.03
2023-03-26T20:14:26.419Z,97347.44
2023-03-26T20:16:58.839Z,97345.47
2023-03-26T20:19:31.681Z,97357.25
2023-03-26T20:22:06.762Z,97357.91
2023-03-26T20:24:39.407Z,97360.53
2023-03-26T20:27:14.147Z,97367.75
2023-03-26T20:29:46.897Z,97369.09
2023-03-26T20:32:26.369Z,97376.25
2023-03-26T20:34:59.397Z,97382.16
2023-03-26T20:37:31.879Z,97384.13
2023-03-26T20:40:09.732Z,97387.41
2023-03-26T20:42:44.561Z,97393.97
2023-03-26T20:45:21.914Z,97391.38
2023-03-26T20:47:54.171Z,97388.06
2023-03-26T20:50:27.255Z,97401.19
2023-03-26T20:53:01.062Z,97395.25
2023-03-26T20:55:33.008Z,97388.72
2023-03-26T20:58:06.304Z,97385.44
2023-03-26T21:00:38.200Z,97387.38
2023-03-26T21:03:17.875Z,97383.47
2023-03-26T21:05:52.718Z,97385.41
2023-03-26T21:08:30.441Z,97389.34
2023-03-26T21:11:05.827Z,97400.50
2023-03-26T21:13:58.619Z,97397.88
2023-03-26T21:16:31.809Z,97395.28
2023-03-26T21:19:07.210Z,97398.56
2023-03-26T21:22:14.193Z,97389.41
2023-03-26T21:25:06.149Z,97386.09
2023-03-26T21:27:47.380Z,97382.16
2023-03-26T21:30:20.659Z,97392.00
2023-03-26T21:32:53.053Z,97390.69
2023-03-26T21:35:26.111Z,97379.56
2023-03-26T21:37:58.834Z,97384.13
2023-03-26T21:40:31.423Z,97393.31
2023-03-26T21:43:04.472Z,97392.63
2023-03-26T21:45:37.250Z,97386.09
2023-03-26T21:48:11.043Z,97371.03
2023-03-26T21:50:44.200Z,97383.47
2023-03-26T21:53:17.833Z,97380.22
2023-03-26T21:56:18.780Z,97392.00
2023-03-26T21:59:43.110Z,97383.47
2023-03-26T22:02:33.714Z,97396.56
2023-03-26T22:05:35.681Z,97399.19
2023-03-26T22:08:17.739Z,97397.91
2023-03-26T22:10:49.693Z,97404.44
2023-03-26T22:13:22.036Z,97409.06
2023-03-26T22:15:54.938Z,97419.53
2023-03-26T22:18:30.127Z,97409.69
2023-03-26T22:21:02.944Z,97428.72
2023-03-26T22:23:36.551Z,97423.47
2023-03-26T22:26:09.397Z,97429.38
2023-03-26T22:28:41.502Z,97432.66
2023-03-26T22:31:15.212Z,97439.88
2023-03-26T22:33:47.099Z,97436.59
2023-03-26T22:36:22.859Z,97442.47
2023-03-26T22:38:58.586Z,97440.53
2023-03-26T22:41:31.023Z,97443.16
2023-03-26T22:44:16.822Z,97451.66
2023-03-26T22:46:54.846Z,97444.47
2023-03-26T22:49:30.486Z,97452.97
2023-03-26T22:52:02.370Z,97454.28
2023-03-26T22:54:36.808Z,97458.25
2023-03-26T22:57:09.024Z,97471.34
2023-03-26T22:59:41.787Z,97473.31
2023-03-26T23:02:13.980Z,97473.97
2023-03-26T23:04:48.114Z,97466.75
2023-03-26T23:07:21.171Z,97473.97
2023-03-26T23:09:53.746Z,97477.22
2023-03-26T23:12:26.289Z,97478.53
2023-03-26T23:14:58.393Z,97481.16
2023-03-26T23:17:34.596Z,97484.44
2023-03-26T23:23:08.312Z,97487.06
2023-03-26T23:25:41.876Z,97490.34
2023-03-26T23:28:14.504Z,97491.00
2023-03-26T23:30:53.256Z,97500.16
2023-03-26T23:33:30.453Z,97504.75
2023-03-26T23:36:09.382Z,97512.63
2023-03-26T23:38:43.508Z,97508.69
2023-03-26T23:41:23.103Z,97516.56
2023-03-26T23:43:59.239Z,97526.38
2023-03-26T23:46:34.919Z,97525.03
2023-03-26T23:49:06.933Z,97544.03
2023-03-26T23:51:39.694Z,97544.69
2023-03-26T23:54:12.172Z,97551.84
2023-03-26T23:56:44.165Z,97551.22
2023-03-26T23:59:17.380Z,97564.97
